Cincinnati, Ohio
Traffic Map
Current Weather Conditions
Cincinnati, Ohio
Clear
Clear
22°
Feels Like: 22°
Wind Chill: 22° Ceiling: Unl
Heat Index: 22° Visibility: 10mi
Dew Point: 12° Wind: 9mph
Humidity: 55% Direction: 260° (W)
Pressure: 29.92in Gusts: 0mph
Raw Report DataKLUK 252153Z 26008KT 10SM CLR 22/12 A2992 RMK AO2 SLP130 T02170122
Traffic Incident Summary
Active as of:
Severity:
Category:
InformationThere was an issue retrieving the traffic information for this location. Please try a different location or try again shortly.
Advertisements
Track Severe Weather on mobile